Time;durP1;ratioP1;P1;durP2;ratioP2;P2;SDS_P1;SDS_P2;PMS_P1;PMS_P2;Temp;Humidity;BMP_temperature;BMP_pressure;BME280_temperature;BME280_humidity;BME280_pressure;Samples;Min_cycle;Max_cycle;Signal;HPM_P1;HPM_P2
2023/10/18 00:01:16;;;;;;;20.58;13.32;;;6.90;99.90;;;;;;4974381;28;20027;-73
2023/10/18 00:03:42;;;;;;;21.75;12.75;;;6.90;99.90;;;;;;4974742;28;20022;-73
2023/10/18 00:06:15;;;;;;;24.38;13.93;;;6.90;99.90;;;;;;4977530;28;20070;-73
2023/10/18 00:08:47;;;;;;;22.90;12.52;;;6.90;99.90;;;;;;4970991;28;20022;-73
2023/10/18 00:11:15;;;;;;;22.13;14.00;;;6.80;99.90;;;;;;4974354;28;20054;-73
2023/10/18 00:13:41;;;;;;;25.38;14.23;;;6.80;99.90;;;;;;4974267;28;20031;-72
2023/10/18 00:16:07;;;;;;;22.60;13.65;;;6.80;99.90;;;;;;4974264;28;20089;-73
2023/10/18 00:18:34;;;;;;;21.52;13.68;;;6.80;99.90;;;;;;4973953;28;20027;-72
2023/10/18 00:21:07;;;;;;;25.00;14.38;;;6.80;99.90;;;;;;4973522;28;20038;-73
2023/10/18 00:23:33;;;;;;;21.27;13.25;;;6.80;99.90;;;;;;4969869;28;20018;-72
2023/10/18 00:26:09;;;;;;;22.65;13.93;;;6.70;99.90;;;;;;4974207;28;20557;-73
2023/10/18 00:28:39;;;;;;;24.00;13.85;;;6.60;99.90;;;;;;4973392;28;20101;-73
2023/10/18 00:31:20;;;;;;;22.75;13.68;;;6.60;99.90;;;;;;4973880;28;20042;-72
2023/10/18 00:33:47;;;;;;;21.15;12.85;;;6.60;99.90;;;;;;4973813;28;20470;-73
2023/10/18 00:36:19;;;;;;;24.25;14.15;;;6.60;99.90;;;;;;4974002;28;20055;-73
2023/10/18 00:38:45;;;;;;;23.55;14.35;;;6.60;99.90;;;;;;4973257;28;20035;-72
2023/10/18 00:41:15;;;;;;;24.83;13.68;;;6.50;99.90;;;;;;4956436;28;20038;-72
2023/10/18 00:43:45;;;;;;;21.40;13.63;;;6.60;99.90;;;;;;4956544;28;20058;-73
2023/10/18 00:46:14;;;;;;;23.60;14.07;;;6.50;99.90;;;;;;4973768;28;20015;-73
2023/10/18 00:48:40;;;;;;;22.38;14.48;;;6.50;99.90;;;;;;4973780;28;20026;-73
2023/10/18 00:51:09;;;;;;;21.05;13.85;;;6.50;99.90;;;;;;4970755;28;20037;-72
2023/10/18 00:53:38;;;;;;;21.15;13.90;;;6.50;99.90;;;;;;4973635;28;20031;-73
2023/10/18 00:56:04;;;;;;;19.48;13.55;;;6.50;99.90;;;;;;4973920;28;20031;-73
2023/10/18 00:58:32;;;;;;;19.85;13.07;;;6.40;99.90;;;;;;4973745;28;20031;-73
2023/10/18 01:01:01;;;;;;;20.23;13.77;;;6.40;99.90;;;;;;4956637;28;20027;-73
2023/10/18 01:03:35;;;;;;;25.35;14.77;;;6.30;99.90;;;;;;4973740;28;20394;-73
2023/10/18 01:06:19;;;;;;;22.52;14.30;;;6.30;99.90;;;;;;4973975;28;20030;-73
2023/10/18 01:08:45;;;;;;;20.83;13.90;;;6.30;99.90;;;;;;4973893;28;20030;-72
2023/10/18 01:11:11;;;;;;;22.90;13.63;;;6.20;99.90;;;;;;4973585;28;20062;-72
2023/10/18 01:13:42;;;;;;;20.15;12.93;;;6.20;99.90;;;;;;4973695;28;20145;-73
2023/10/18 01:16:21;;;;;;;25.75;13.00;;;6.20;99.90;;;;;;4973588;28;20023;-73
2023/10/18 01:18:48;;;;;;;22.20;13.18;;;6.20;99.90;;;;;;4973570;28;20502;-72
2023/10/18 01:21:17;;;;;;;21.38;12.07;;;6.20;99.90;;;;;;4973521;28;20031;-72
2023/10/18 01:23:54;;;;;;;17.85;12.35;;;6.10;99.90;;;;;;4973518;28;20022;-72
2023/10/18 01:26:24;;;;;;;16.52;11.32;;;6.10;99.90;;;;;;4973406;28;20018;-72
2023/10/18 01:28:54;;;;;;;21.20;11.48;;;6.00;99.90;;;;;;4973208;28;20022;-72
2023/10/18 01:31:21;;;;;;;19.17;12.07;;;6.00;99.90;;;;;;4972981;28;20038;-72
2023/10/18 01:33:47;;;;;;;18.58;11.70;;;6.00;99.90;;;;;;4973104;28;20018;-72
2023/10/18 01:36:16;;;;;;;21.13;12.35;;;5.90;99.90;;;;;;4973105;28;20496;-72
2023/10/18 01:38:48;;;;;;;17.58;11.40;;;5.90;99.90;;;;;;4973188;28;20474;-73
2023/10/18 01:41:25;;;;;;;20.75;12.20;;;5.90;99.90;;;;;;4971709;28;20026;-72
2023/10/18 01:43:56;;;;;;;19.65;12.68;;;5.90;99.90;;;;;;4973210;28;20418;-72
2023/10/18 01:46:23;;;;;;;17.83;11.75;;;5.90;99.90;;;;;;4973171;28;20027;-73
2023/10/18 01:48:52;;;;;;;19.70;11.50;;;5.90;99.90;;;;;;4973025;28;20442;-73
2023/10/18 01:51:19;;;;;;;19.00;11.77;;;5.90;99.90;;;;;;4955761;28;20026;-73
2023/10/18 01:53:44;;;;;;;18.70;11.77;;;5.90;99.90;;;;;;4972979;28;20074;-73
2023/10/18 01:56:10;;;;;;;19.65;13.15;;;5.80;99.90;;;;;;4972755;28;20034;-73
2023/10/18 01:58:37;;;;;;;19.42;11.55;;;5.80;99.90;;;;;;4955325;28;20501;-73
2023/10/18 02:01:10;;;;;;;18.05;11.82;;;5.80;99.90;;;;;;4972846;28;20023;-73
2023/10/18 02:03:39;;;;;;;17.33;11.07;;;5.80;99.90;;;;;;4972884;28;20498;-73
2023/10/18 02:06:09;;;;;;;18.83;11.23;;;5.90;99.90;;;;;;4972819;28;20256;-73
2023/10/18 02:08:36;;;;;;;20.58;11.20;;;5.80;99.90;;;;;;4956046;28;20074;-73
2023/10/18 02:11:06;;;;;;;16.35;11.80;;;5.80;99.90;;;;;;4955438;28;20062;-73
2023/10/18 02:13:32;;;;;;;18.80;11.30;;;5.80;99.90;;;;;;4955239;28;20477;-73
2023/10/18 02:15:58;;;;;;;19.60;12.07;;;5.70;99.90;;;;;;4972538;28;20030;-73
2023/10/18 02:18:26;;;;;;;19.73;11.43;;;5.70;99.90;;;;;;4972635;28;20482;-73
2023/10/18 02:20:52;;;;;;;18.52;11.02;;;5.70;99.90;;;;;;4955191;28;20031;-73
2023/10/18 02:23:19;;;;;;;17.15;11.07;;;5.70;99.90;;;;;;4972569;28;20025;-73
2023/10/18 02:25:45;;;;;;;18.60;11.68;;;5.70;99.90;;;;;;4955282;28;20466;-73
2023/10/18 02:28:28;;;;;;;18.67;11.25;;;5.70;99.90;;;;;;4955330;28;20110;-73
2023/10/18 02:31:10;;;;;;;17.73;11.18;;;5.60;99.90;;;;;;4955137;28;20033;-73
2023/10/18 02:33:42;;;;;;;18.00;11.23;;;5.70;99.90;;;;;;4955403;28;20037;-73
2023/10/18 02:36:11;;;;;;;17.58;10.52;;;5.70;99.90;;;;;;4972537;28;20022;-73
2023/10/18 02:38:41;;;;;;;20.83;11.45;;;5.70;99.90;;;;;;4972302;28;20022;-73
2023/10/18 02:41:21;;;;;;;16.95;11.32;;;5.60;99.90;;;;;;4972316;28;20033;-73
2023/10/18 02:43:49;;;;;;;18.05;11.52;;;5.60;99.90;;;;;;4972431;28;20046;-73
2023/10/18 02:46:16;;;;;;;17.05;10.95;;;5.70;99.90;;;;;;4972367;28;20109;-73
2023/10/18 02:48:44;;;;;;;17.20;10.70;;;5.70;99.90;;;;;;4972470;28;20581;-72
2023/10/18 02:51:13;;;;;;;17.98;11.10;;;5.70;99.90;;;;;;4972267;28;20027;-73
2023/10/18 02:53:40;;;;;;;18.85;12.27;;;5.70;99.90;;;;;;4972295;28;20027;-72
2023/10/18 02:56:06;;;;;;;15.75;11.02;;;5.70;99.90;;;;;;4972426;28;20483;-72
2023/10/18 02:58:34;;;;;;;17.77;11.07;;;5.70;99.90;;;;;;4972077;28;20031;-72
2023/10/18 03:01:05;;;;;;;18.25;11.27;;;5.70;99.90;;;;;;4972650;28;20038;-72
2023/10/18 03:03:32;;;;;;;17.67;10.68;;;5.70;99.90;;;;;;4958424;28;20074;-72
2023/10/18 03:05:59;;;;;;;18.73;11.50;;;5.60;99.90;;;;;;4975625;28;20026;-73
2023/10/18 03:08:25;;;;;;;19.33;11.35;;;5.60;99.90;;;;;;4975779;28;20520;-72
2023/10/18 03:10:51;;;;;;;14.63;10.70;;;5.60;99.90;;;;;;4975535;28;20117;-72
2023/10/18 03:13:18;;;;;;;15.82;11.00;;;5.60;99.90;;;;;;4958114;28;20031;-72
2023/10/18 03:15:54;;;;;;;17.00;10.35;;;5.60;99.90;;;;;;4958002;28;20177;-73
2023/10/18 03:18:25;;;;;;;19.27;10.93;;;5.70;99.90;;;;;;4984247;28;20128;-73
2023/10/18 03:20:58;;;;;;;19.27;11.27;;;5.60;99.90;;;;;;4975141;28;20174;-73
2023/10/18 03:23:26;;;;;;;19.33;11.43;;;5.60;99.90;;;;;;4958046;28;20042;-73
2023/10/18 03:26:07;;;;;;;16.30;11.07;;;5.60;99.90;;;;;;4960901;28;20022;-74
2023/10/18 03:28:34;;;;;;;18.17;11.00;;;5.60;99.90;;;;;;4975278;28;20031;-74
2023/10/18 03:31:24;;;;;;;17.40;11.77;;;5.60;99.90;;;;;;4958949;28;20029;-73
2023/10/18 03:34:01;;;;;;;16.90;11.27;;;5.50;99.90;;;;;;4955893;29;20066;-74
2023/10/18 03:36:31;;;;;;;16.60;11.48;;;5.50;99.90;;;;;;4955954;29;20028;-75
2023/10/18 03:39:00;;;;;;;18.75;11.98;;;5.50;99.90;;;;;;4938732;29;20508;-74
2023/10/18 03:41:40;;;;;;;24.23;12.80;;;5.50;99.90;;;;;;4955636;29;20027;-74
2023/10/18 03:44:06;;;;;;;17.73;11.38;;;5.50;99.90;;;;;;4966646;28;20022;-74
2023/10/18 03:47:12;;;;;;;14.38;10.20;;;5.40;99.90;;;;;;4974769;28;20027;-75
2023/10/18 03:49:31;;;;;;;19.35;11.45;;;5.40;99.90;;;;;;4972394;28;20059;-75
2023/10/18 03:52:01;;;;;;;18.13;11.73;;;5.40;99.90;;;;;;4974700;28;20023;-74
2023/10/18 03:54:28;;;;;;;18.42;11.90;;;5.40;99.90;;;;;;4974686;28;20027;-75
2023/10/18 03:56:54;;;;;;;18.40;11.52;;;5.30;99.90;;;;;;4974365;28;20050;-75
2023/10/18 03:59:25;;;;;;;18.30;10.75;;;5.30;99.90;;;;;;4974464;28;20086;-75
2023/10/18 04:04:37;;;;;;;17.55;11.05;;;5.10;99.90;;;;;;4975491;28;20486;-75
2023/10/18 04:07:12;;;;;;;17.67;11.52;;;5.10;99.90;;;;;;4976171;28;20027;-75
2023/10/18 04:10:06;;;;;;;17.67;11.10;;;5.00;99.90;;;;;;4958913;28;20050;-73
2023/10/18 04:12:32;;;;;;;15.97;11.10;;;5.00;99.90;;;;;;4974587;28;20492;-75
2023/10/18 04:14:58;;;;;;;16.73;10.75;;;5.00;99.90;;;;;;4977277;28;20140;-74
2023/10/18 04:17:33;;;;;;;15.55;10.48;;;4.90;99.90;;;;;;4993855;28;20037;-75
2023/10/18 04:20:00;;;;;;;15.25;10.57;;;5.00;99.90;;;;;;4977810;28;20022;-74
2023/10/18 04:22:27;;;;;;;16.52;10.50;;;5.00;99.90;;;;;;4974508;28;20168;-74
2023/10/18 04:24:54;;;;;;;16.63;10.10;;;5.00;99.90;;;;;;4974055;28;20070;-75
2023/10/18 04:27:20;;;;;;;19.95;11.43;;;5.00;99.90;;;;;;4974102;28;20051;-72
2023/10/18 04:29:48;;;;;;;17.20;10.45;;;5.00;99.90;;;;;;4972953;28;20022;-73
2023/10/18 04:32:20;;;;;;;18.38;11.25;;;5.00;99.90;;;;;;4974140;28;20482;-74
2023/10/18 04:34:46;;;;;;;16.35;10.27;;;5.00;99.90;;;;;;4974338;28;20144;-74
2023/10/18 04:37:16;;;;;;;18.27;11.05;;;5.00;99.90;;;;;;4974724;28;20026;-73
2023/10/18 04:39:42;;;;;;;17.17;10.20;;;5.00;99.90;;;;;;4956831;28;20085;-74
2023/10/18 04:42:08;;;;;;;16.15;9.52;;;4.90;99.90;;;;;;4955846;28;20450;-74
2023/10/18 04:44:35;;;;;;;15.93;10.80;;;4.90;99.90;;;;;;4952063;28;20023;-73
2023/10/18 04:47:14;;;;;;;16.23;11.18;;;4.90;99.90;;;;;;4974232;28;20027;-74
2023/10/18 04:49:39;;;;;;;14.65;10.23;;;4.90;99.90;;;;;;4974022;28;20031;-74
2023/10/18 04:52:09;;;;;;;16.20;10.25;;;4.90;99.90;;;;;;4974066;28;20390;-74
2023/10/18 04:54:37;;;;;;;17.80;10.60;;;4.90;99.90;;;;;;4973891;28;20121;-74
2023/10/18 04:57:05;;;;;;;15.07;10.00;;;4.90;99.90;;;;;;4973930;28;20023;-74
2023/10/18 04:59:44;;;;;;;16.17;9.93;;;5.00;99.90;;;;;;4973965;28;20725;-73
2023/10/18 05:02:16;;;;;;;16.13;10.00;;;4.90;99.90;;;;;;4973944;28;20474;-76
2023/10/18 05:04:41;;;;;;;16.15;10.23;;;5.00;99.90;;;;;;4959343;28;20092;-74
2023/10/18 05:09:41;;;;;;;16.73;10.73;;;5.00;99.90;;;;;;4975506;28;20025;-74
2023/10/18 05:15:06;;;;;;;14.43;9.38;;;5.00;99.90;;;;;;4974610;28;20023;-74
2023/10/18 05:17:48;;;;;;;15.27;10.00;;;4.90;99.90;;;;;;4973945;28;20702;-74
2023/10/18 05:22:59;;;;;;;17.50;10.85;;;4.90;99.90;;;;;;4973999;28;20035;-74
2023/10/18 05:25:30;;;;;;;17.15;10.65;;;4.90;99.90;;;;;;4956264;28;20117;-74
2023/10/18 05:41:29;;;;;;;17.48;10.63;;;4.70;99.90;;;;;;4973603;28;20115;-74
2023/10/18 05:43:58;;;;;;;15.95;10.40;;;4.70;99.90;;;;;;4973516;28;20030;-75
2023/10/18 05:46:27;;;;;;;18.25;11.40;;;4.70;99.90;;;;;;4956005;28;20023;-74
2023/10/18 05:48:55;;;;;;;16.85;11.15;;;4.70;99.90;;;;;;4973122;28;20019;-74
2023/10/18 05:52:16;;;;;;;18.45;10.68;;;4.70;99.90;;;;;;4973063;28;20042;-74
2023/10/18 05:54:07;;;;;;;15.32;10.95;;;4.60;99.90;;;;;;4965668;28;20130;-74
2023/10/18 05:56:33;;;;;;;18.20;11.50;;;4.60;99.90;;;;;;4972915;28;20061;-74
2023/10/18 06:01:45;;;;;;;17.50;10.32;;;4.60;99.90;;;;;;4972958;28;20034;-74
2023/10/18 06:04:12;;;;;;;17.75;11.27;;;4.70;99.90;;;;;;4973320;28;20035;-74
2023/10/18 06:06:38;;;;;;;22.05;11.77;;;4.60;99.90;;;;;;4973023;28;20062;-74
2023/10/18 06:09:45;;;;;;;20.15;11.82;;;4.70;99.90;;;;;;4955557;28;20027;-74
2023/10/18 06:12:03;;;;;;;21.80;11.40;;;4.70;99.90;;;;;;4968793;28;20035;-74
2023/10/18 06:14:40;;;;;;;20.55;11.18;;;4.60;99.90;;;;;;4981071;28;20114;-75
2023/10/18 06:17:12;;;;;;;20.35;11.13;;;4.70;99.90;;;;;;4972729;28;20089;-74
2023/10/18 06:19:38;;;;;;;21.80;12.45;;;4.80;99.90;;;;;;4972755;28;20023;-74
2023/10/18 06:24:51;;;;;;;25.52;12.63;;;4.80;99.90;;;;;;4953536;29;20425;-74
2023/10/18 06:27:17;;;;;;;22.92;12.82;;;4.90;99.90;;;;;;4956421;28;20021;-74
2023/10/18 06:29:45;;;;;;;19.65;11.98;;;4.90;99.90;;;;;;4968827;28;20030;-76
2023/10/18 06:32:14;;;;;;;19.92;12.38;;;4.90;99.90;;;;;;4972458;28;20114;-77
2023/10/18 06:34:46;;;;;;;22.42;11.52;;;5.00;99.90;;;;;;4960674;28;20030;-77
2023/10/18 06:37:40;;;;;;;19.02;11.65;;;5.10;99.90;;;;;;4973375;28;20038;-77
2023/10/18 06:40:17;;;;;;;19.17;11.82;;;5.10;99.90;;;;;;4973688;28;20517;-77
2023/10/18 06:42:46;;;;;;;26.17;11.52;;;5.10;99.90;;;;;;4970339;28;20031;-75
2023/10/18 06:45:15;;;;;;;25.17;12.40;;;5.10;99.90;;;;;;4972865;28;20114;-74
2023/10/18 06:47:44;;;;;;;19.08;11.20;;;5.10;99.90;;;;;;4958560;28;20031;-72
2023/10/18 06:50:11;;;;;;;18.25;10.57;;;5.10;99.90;;;;;;4976328;28;20445;-72
2023/10/18 06:52:52;;;;;;;22.50;11.45;;;5.10;99.90;;;;;;4944937;29;20526;-72
2023/10/18 06:55:35;;;;;;;15.70;10.70;;;5.10;99.90;;;;;;4982307;28;20018;-74
2023/10/18 06:58:11;;;;;;;19.52;10.98;;;5.10;99.90;;;;;;4974640;28;20114;-73
2023/10/18 07:00:43;;;;;;;19.35;11.05;;;5.10;99.90;;;;;;4967298;28;20046;-74
2023/10/18 07:03:16;;;;;;;17.77;11.05;;;5.20;99.90;;;;;;4961693;28;20022;-76
2023/10/18 07:05:44;;;;;;;18.60;11.00;;;5.20;99.90;;;;;;4976200;28;20087;-75
2023/10/18 07:08:19;;;;;;;15.60;11.25;;;5.10;99.90;;;;;;4975720;28;20098;-74
2023/10/18 07:10:54;;;;;;;16.73;10.90;;;5.10;99.90;;;;;;4976766;28;20626;-74
2023/10/18 07:13:46;;;;;;;17.63;11.18;;;5.10;99.90;;;;;;4975316;28;20094;-76
2023/10/18 07:16:18;;;;;;;17.45;11.00;;;5.10;99.90;;;;;;4973937;28;20055;-75
2023/10/18 07:18:44;;;;;;;19.00;11.18;;;5.10;99.90;;;;;;4974391;28;20041;-75
2023/10/18 07:21:11;;;;;;;20.23;10.90;;;5.20;99.90;;;;;;4974521;28;20033;-74
2023/10/18 07:23:37;;;;;;;19.20;11.70;;;5.30;99.90;;;;;;4972027;28;20443;-74
2023/10/18 07:26:13;;;;;;;18.02;12.00;;;5.40;99.90;;;;;;4981015;28;20094;-74
2023/10/18 07:28:40;;;;;;;21.25;12.30;;;5.40;99.90;;;;;;4971544;28;20074;-74
2023/10/18 07:31:10;;;;;;;22.00;12.88;;;5.40;99.90;;;;;;4964761;28;20118;-74
2023/10/18 07:33:42;;;;;;;27.33;13.82;;;5.50;99.90;;;;;;4959798;28;20031;-74
2023/10/18 07:36:12;;;;;;;21.48;13.27;;;5.60;99.90;;;;;;4982330;28;20031;-74
2023/10/18 07:38:39;;;;;;;21.48;13.52;;;5.70;99.90;;;;;;4957622;28;20049;-74
2023/10/18 07:41:08;;;;;;;21.27;13.32;;;5.80;99.90;;;;;;4974652;28;20019;-74
2023/10/18 07:43:37;;;;;;;24.33;12.73;;;5.90;99.90;;;;;;4955098;28;20157;-74
2023/10/18 07:46:24;;;;;;;24.52;15.35;;;6.00;99.90;;;;;;4952661;28;20118;-74
2023/10/18 07:48:53;;;;;;;23.52;14.52;;;6.10;99.90;;;;;;4953168;28;20027;-74
2023/10/18 07:51:26;;;;;;;24.75;15.15;;;6.20;99.90;;;;;;4970567;28;20386;-74
2023/10/18 07:53:54;;;;;;;23.38;14.50;;;6.20;99.90;;;;;;4969885;28;20101;-73
2023/10/18 07:56:31;;;;;;;19.48;12.25;;;6.30;99.90;;;;;;4970923;28;20060;-74
2023/10/18 08:04:27;;;;;;;20.92;12.60;;;6.40;99.90;;;;;;4967127;28;20394;-74
2023/10/18 08:06:53;;;;;;;21.98;13.25;;;6.50;99.90;;;;;;4971417;28;20050;-74
2023/10/18 08:09:28;;;;;;;22.92;13.63;;;6.60;99.90;;;;;;4972360;28;20489;-74
2023/10/18 08:11:54;;;;;;;24.75;13.80;;;6.60;99.90;;;;;;4969903;28;20041;-74
2023/10/18 08:14:24;;;;;;;19.73;13.40;;;6.70;99.90;;;;;;4968069;28;20034;-74
2023/10/18 08:16:55;;;;;;;20.65;13.43;;;6.70;99.90;;;;;;4971260;28;20514;-74
2023/10/18 08:19:24;;;;;;;21.88;13.60;;;6.80;99.90;;;;;;4971927;28;20137;-74
2023/10/18 08:22:21;;;;;;;22.48;12.25;;;6.80;99.90;;;;;;4973915;28;20153;-74
2023/10/18 08:24:49;;;;;;;19.98;12.57;;;6.90;99.90;;;;;;4968412;28;20031;-73
2023/10/18 08:27:15;;;;;;;24.15;13.82;;;6.90;99.90;;;;;;4967582;28;20021;-73
2023/10/18 08:29:41;;;;;;;18.77;12.32;;;6.90;99.90;;;;;;4966182;28;20023;-74
2023/10/18 08:32:14;;;;;;;18.42;11.85;;;7.00;99.90;;;;;;4966996;28;20039;-74
2023/10/18 08:34:44;;;;;;;25.60;13.52;;;7.10;99.90;;;;;;4971737;28;20522;-74
2023/10/18 08:37:16;;;;;;;19.95;12.65;;;7.20;99.90;;;;;;4972601;28;20274;-74
2023/10/18 08:39:53;;;;;;;21.30;12.68;;;7.30;99.90;;;;;;4970068;28;20114;-74
2023/10/18 08:42:24;;;;;;;19.98;13.13;;;7.40;99.90;;;;;;4968454;28;20018;-74
2023/10/18 08:44:55;;;;;;;19.92;11.60;;;7.50;99.90;;;;;;4969006;28;20558;-74
2023/10/18 08:47:26;;;;;;;18.08;12.07;;;7.60;99.90;;;;;;4970818;28;20402;-74
2023/10/18 08:49:55;;;;;;;20.90;12.23;;;7.60;99.90;;;;;;4969211;28;20053;-74
2023/10/18 08:52:23;;;;;;;22.25;13.02;;;7.70;99.90;;;;;;4970008;28;20026;-74
2023/10/18 08:54:50;;;;;;;16.77;11.95;;;7.80;99.90;;;;;;4972507;28;20023;-74
2023/10/18 08:57:36;;;;;;;18.02;12.27;;;7.80;99.90;;;;;;4958635;28;20045;-74
2023/10/18 09:00:47;;;;;;;17.52;11.85;;;7.80;99.90;;;;;;4970104;28;20030;-74
2023/10/18 09:02:53;;;;;;;17.15;12.13;;;7.90;99.90;;;;;;4964942;28;20045;-74
2023/10/18 09:05:25;;;;;;;22.27;12.98;;;7.90;99.90;;;;;;4970349;28;20089;-73
2023/10/18 09:08:03;;;;;;;18.95;13.00;;;8.00;99.90;;;;;;4970847;28;20105;-74
2023/10/18 09:18:25;;;;;;;16.35;11.88;;;8.00;99.90;;;;;;4974284;28;20042;-74
2023/10/18 09:20:51;;;;;;;19.77;12.18;;;8.10;99.90;;;;;;4970345;28;20102;-74
2023/10/18 09:23:20;;;;;;;16.50;11.15;;;8.10;99.90;;;;;;4968002;28;20114;-75
2023/10/18 09:25:50;;;;;;;15.50;11.57;;;8.10;99.90;;;;;;4962248;28;20402;-74
2023/10/18 09:28:30;;;;;;;19.77;12.32;;;8.20;99.90;;;;;;4951469;28;20022;-74
2023/10/18 09:31:02;;;;;;;25.52;12.48;;;8.20;99.90;;;;;;4965840;28;20026;-74
2023/10/18 09:33:32;;;;;;;20.25;13.00;;;8.30;99.90;;;;;;4959378;28;20031;-74
2023/10/18 09:36:02;;;;;;;21.50;13.02;;;8.30;99.90;;;;;;4951252;28;20033;-75
2023/10/18 09:38:43;;;;;;;18.45;12.55;;;8.40;99.90;;;;;;4955801;28;20071;-74
2023/10/18 09:41:09;;;;;;;20.33;12.57;;;8.50;99.90;;;;;;4971091;28;20046;-76
2023/10/18 09:43:38;;;;;;;22.10;12.55;;;8.50;99.90;;;;;;4970523;28;20617;-75
2023/10/18 09:46:04;;;;;;;23.50;11.88;;;8.60;99.90;;;;;;4978204;28;20030;-74
2023/10/18 09:48:38;;;;;;;18.63;11.60;;;8.70;99.90;;;;;;4966618;28;20023;-76
2023/10/18 09:51:08;;;;;;;19.13;12.23;;;8.80;99.90;;;;;;4972027;28;20102;-76
2023/10/18 09:53:42;;;;;;;21.55;12.50;;;8.90;99.90;;;;;;4973095;28;20019;-73
2023/10/18 09:56:12;;;;;;;21.73;13.20;;;9.00;99.90;;;;;;4953875;28;20034;-77
2023/10/18 09:58:43;;;;;;;19.13;12.35;;;9.00;99.90;;;;;;4966510;28;20401;-76
2023/10/18 10:04:04;;;;;;;18.55;11.75;;;9.30;99.90;;;;;;4954076;28;20035;-76
2023/10/18 10:06:29;;;;;;;18.90;12.30;;;9.40;99.90;;;;;;4965740;28;20077;-74
2023/10/18 10:09:12;;;;;;;19.35;12.30;;;9.40;99.90;;;;;;4950777;28;20586;-75
2023/10/18 10:11:45;;;;;;;21.65;13.27;;;9.50;99.90;;;;;;4966924;28;20165;-75
2023/10/18 10:14:15;;;;;;;20.93;12.23;;;9.60;99.90;;;;;;4969934;28;20037;-76
2023/10/18 10:16:52;;;;;;;19.38;12.15;;;9.70;99.90;;;;;;4972220;28;20037;-76
2023/10/18 10:19:25;;;;;;;20.08;12.30;;;9.70;99.90;;;;;;4967649;28;20779;-74
2023/10/18 10:21:52;;;;;;;21.85;13.43;;;9.80;99.90;;;;;;4970245;28;20038;-74
2023/10/18 10:24:31;;;;;;;17.15;12.57;;;9.90;99.90;;;;;;4971646;28;20027;-74
2023/10/18 10:27:27;;;;;;;20.83;12.90;;;9.90;99.90;;;;;;4964280;28;20034;-74
2023/10/18 10:29:56;;;;;;;23.25;13.38;;;10.00;99.90;;;;;;4955364;28;20026;-74
2023/10/18 10:32:28;;;;;;;20.80;12.85;;;10.10;99.90;;;;;;4966950;28;20434;-74
2023/10/18 10:35:17;;;;;;;17.83;11.43;;;10.20;99.90;;;;;;4970174;28;20062;-73
2023/10/18 10:38:13;;;;;;;19.23;12.85;;;10.20;99.90;;;;;;4974151;28;20031;-74
2023/10/18 10:40:43;;;;;;;17.48;11.60;;;10.30;99.90;;;;;;4968774;28;20082;-74
2023/10/18 10:43:10;;;;;;;17.80;11.85;;;10.30;99.90;;;;;;4974308;28;20035;-74
2023/10/18 10:48:15;;;;;;;19.83;12.45;;;10.40;99.90;;;;;;4969434;28;20196;-74
2023/10/18 10:53:44;;;;;;;20.17;13.27;;;10.50;99.90;;;;;;4968060;28;20098;-74
2023/10/18 10:56:17;;;;;;;20.58;12.30;;;10.60;99.90;;;;;;4954201;28;20033;-74
2023/10/18 11:01:39;;;;;;;23.10;14.30;;;10.80;99.90;;;;;;4971114;28;20036;-73
2023/10/18 11:04:11;;;;;;;20.60;14.10;;;10.80;99.90;;;;;;4963927;28;20034;-73
2023/10/18 11:06:43;;;;;;;20.38;13.23;;;10.90;99.90;;;;;;4970311;28;20077;-73
2023/10/18 11:09:15;;;;;;;20.50;13.45;;;11.00;99.90;;;;;;4969993;28;20062;-73
2023/10/18 11:11:47;;;;;;;19.55;13.40;;;11.00;99.90;;;;;;4970930;28;20092;-74
2023/10/18 11:14:18;;;;;;;19.90;12.80;;;11.10;99.90;;;;;;4972219;28;20027;-74
2023/10/18 11:16:53;;;;;;;19.75;13.57;;;11.10;99.90;;;;;;4970045;28;20077;-74
2023/10/18 11:19:24;;;;;;;21.98;13.00;;;11.10;99.90;;;;;;4970619;28;20038;-74
2023/10/18 11:21:51;;;;;;;24.23;13.70;;;11.20;99.90;;;;;;4962467;28;20033;-74
2023/10/18 11:24:21;;;;;;;25.02;13.88;;;11.20;99.90;;;;;;4968486;28;20019;-74
2023/10/18 11:26:50;;;;;;;23.15;12.98;;;11.20;99.90;;;;;;4970135;28;20434;-74
2023/10/18 11:29:24;;;;;;;18.23;12.25;;;11.30;99.90;;;;;;4969373;28;20019;-74
2023/10/18 11:31:55;;;;;;;18.30;12.48;;;11.30;99.90;;;;;;4956089;28;20030;-74
2023/10/18 11:34:27;;;;;;;17.00;11.80;;;11.40;99.90;;;;;;4969013;28;20405;-74
2023/10/18 11:36:55;;;;;;;21.77;13.07;;;11.50;99.90;;;;;;4969836;28;20030;-74
2023/10/18 11:39:23;;;;;;;19.52;11.50;;;11.50;99.90;;;;;;4970959;28;20023;-73
2023/10/18 11:41:49;;;;;;;20.58;13.45;;;11.60;99.90;;;;;;4967939;28;20085;-74
2023/10/18 11:44:26;;;;;;;19.65;13.02;;;11.60;99.90;;;;;;4967237;28;20030;-76
2023/10/18 11:46:56;;;;;;;18.33;13.05;;;11.70;99.90;;;;;;4972398;28;20022;-73
2023/10/18 11:49:33;;;;;;;16.00;12.25;;;11.70;99.90;;;;;;4969444;28;20114;-74
2023/10/18 11:51:59;;;;;;;16.63;11.65;;;11.70;99.90;;;;;;4973136;28;20062;-74
2023/10/18 11:54:29;;;;;;;18.20;10.93;;;11.70;99.90;;;;;;4969030;28;20055;-74
2023/10/18 11:56:56;;;;;;;18.95;11.63;;;11.80;99.90;;;;;;4968069;28;20058;-74
2023/10/18 11:59:23;;;;;;;17.45;11.80;;;11.80;99.90;;;;;;4969885;28;20031;-74
2023/10/18 12:02:04;;;;;;;16.25;11.35;;;11.80;99.90;;;;;;4971209;28;20470;-74
2023/10/18 12:04:37;;;;;;;20.65;11.05;;;11.90;99.90;;;;;;4968183;28;20050;-74
2023/10/18 12:07:03;;;;;;;16.55;8.88;;;11.90;99.90;;;;;;4970443;28;20381;-74
2023/10/18 12:09:31;;;;;;;17.05;10.25;;;12.00;99.90;;;;;;4962690;28;20031;-74
2023/10/18 12:11:58;;;;;;;13.90;9.85;;;12.00;99.90;;;;;;4966953;28;20039;-73
2023/10/18 12:14:23;;;;;;;16.15;10.60;;;12.00;99.90;;;;;;4971994;28;20041;-74
2023/10/18 12:16:54;;;;;;;17.08;10.30;;;12.00;99.90;;;;;;4965013;28;20137;-75
2023/10/18 12:19:20;;;;;;;15.88;9.30;;;12.10;99.90;;;;;;4968761;28;20033;-74
2023/10/18 12:21:49;;;;;;;14.90;9.35;;;12.10;99.90;;;;;;4970717;28;20027;-74
2023/10/18 12:24:15;;;;;;;15.55;9.82;;;12.10;99.90;;;;;;4972453;28;20379;-74
2023/10/18 12:26:43;;;;;;;14.80;9.50;;;12.10;99.90;;;;;;4971589;28;20398;-75
2023/10/18 12:29:15;;;;;;;13.02;9.00;;;12.10;99.90;;;;;;4970313;28;20105;-74
2023/10/18 12:31:52;;;;;;;14.63;9.40;;;12.10;99.90;;;;;;4969108;28;20042;-74
2023/10/18 12:34:21;;;;;;;13.55;9.15;;;12.10;99.90;;;;;;4968473;28;20045;-75
2023/10/18 12:36:49;;;;;;;15.77;8.68;;;12.20;99.90;;;;;;4967455;28;20019;-74
2023/10/18 12:39:20;;;;;;;14.07;8.82;;;12.20;99.90;;;;;;4970600;28;20654;-73
2023/10/18 12:41:52;;;;;;;14.73;8.35;;;12.30;99.90;;;;;;4974702;28;20018;-74
2023/10/18 12:44:18;;;;;;;12.82;8.82;;;12.30;99.90;;;;;;4955256;28;20030;-75
2023/10/18 12:46:50;;;;;;;12.32;8.40;;;12.40;99.90;;;;;;4972763;28;20094;-75
2023/10/18 12:49:22;;;;;;;11.82;8.20;;;12.40;99.90;;;;;;4971165;28;20052;-75
2023/10/18 12:51:57;;;;;;;12.70;7.82;;;12.50;99.90;;;;;;4971428;28;20078;-75
2023/10/18 12:54:29;;;;;;;17.25;9.40;;;12.50;99.90;;;;;;4972000;28;20022;-75
2023/10/18 12:57:20;;;;;;;14.57;9.80;;;12.50;99.90;;;;;;4965892;28;20031;-74
2023/10/18 13:05:22;;;;;;;12.98;8.45;;;12.60;99.90;;;;;;4960087;28;20474;-74
2023/10/18 13:07:52;;;;;;;18.10;10.07;;;12.60;99.90;;;;;;4972226;28;20051;-74
2023/10/18 13:10:35;;;;;;;14.95;9.75;;;12.60;99.90;;;;;;4978169;28;20022;-74
2023/10/18 13:13:04;;;;;;;15.60;9.88;;;12.70;99.90;;;;;;4971927;28;20109;-74
2023/10/18 13:15:33;;;;;;;17.77;11.05;;;12.70;99.90;;;;;;4957766;28;20023;-74
2023/10/18 13:17:59;;;;;;;17.38;11.43;;;12.60;99.90;;;;;;4957322;28;20091;-76
2023/10/18 13:20:24;;;;;;;18.83;11.82;;;12.60;99.90;;;;;;4957237;28;20487;-74
2023/10/18 13:22:56;;;;;;;19.38;11.63;;;12.60;99.90;;;;;;4959665;28;20050;-74
2023/10/18 13:25:26;;;;;;;17.40;10.40;;;12.60;99.90;;;;;;4964685;28;20053;-74
2023/10/18 13:28:04;;;;;;;15.75;11.20;;;12.50;99.90;;;;;;4974590;28;20022;-74
2023/10/18 13:30:32;;;;;;;16.88;10.45;;;12.50;99.90;;;;;;4973137;28;20018;-74
2023/10/18 13:33:02;;;;;;;14.10;10.27;;;12.40;99.90;;;;;;4960418;28;20023;-74
2023/10/18 13:35:34;;;;;;;18.17;10.93;;;12.40;99.90;;;;;;4973904;28;20034;-75
2023/10/18 13:37:59;;;;;;;19.08;11.13;;;12.40;99.90;;;;;;4963215;28;20070;-76
2023/10/18 13:40:27;;;;;;;16.40;10.70;;;12.30;99.90;;;;;;4969865;28;20050;-75
2023/10/18 13:42:54;;;;;;;18.00;10.43;;;12.30;99.90;;;;;;4974026;28;20027;-75
2023/10/18 13:45:27;;;;;;;16.42;11.50;;;12.30;99.90;;;;;;4968804;28;20022;-74
2023/10/18 13:47:53;;;;;;;18.92;10.45;;;12.20;99.90;;;;;;4956263;28;20373;-74
2023/10/18 13:50:18;;;;;;;20.55;11.57;;;12.20;99.90;;;;;;4969482;28;20028;-74
2023/10/18 13:52:46;;;;;;;18.25;12.10;;;12.20;99.90;;;;;;4984099;28;20366;-74
2023/10/18 13:55:14;;;;;;;20.70;13.15;;;12.10;99.90;;;;;;4966677;28;20023;-74